sensor_id;sensor_type;location;lat;lon;timestamp;pressure;altitude;pressure_sealevel;temperature;humidity
77739;BME280;66904;59.926;30.404;2024-02-04T00:01:02;98403.44;;;2.10;74.17
77739;BME280;66904;59.926;30.404;2024-02-04T00:06:13;98401.66;;;1.99;74.47
77739;BME280;66904;59.926;30.404;2024-02-04T00:11:23;98390.63;;;1.96;74.13
77739;BME280;66904;59.926;30.404;2024-02-04T00:16:34;98387.56;;;1.91;73.84
77739;BME280;66904;59.926;30.404;2024-02-04T00:21:45;98378.31;;;1.87;74.83
77739;BME280;66904;59.926;30.404;2024-02-04T00:26:56;98361.59;;;1.78;74.88
77739;BME280;66904;59.926;30.404;2024-02-04T00:32:06;98377.94;;;1.80;74.04
77739;BME280;66904;59.926;30.404;2024-02-04T00:37:17;98384.34;;;1.76;74.47
77739;BME280;66904;59.926;30.404;2024-02-04T00:42:28;98380.09;;;1.75;74.80
77739;BME280;66904;59.926;30.404;2024-02-04T00:47:38;98374.03;;;1.75;74.38
77739;BME280;66904;59.926;30.404;2024-02-04T00:52:49;98363.38;;;1.78;74.64
77739;BME280;66904;59.926;30.404;2024-02-04T00:58:00;98360.44;;;1.82;74.18
77739;BME280;66904;59.926;30.404;2024-02-04T01:03:12;98363.84;;;1.83;75.06
77739;BME280;66904;59.926;30.404;2024-02-04T01:08:23;98365.06;;;1.79;75.08
77739;BME280;66904;59.926;30.404;2024-02-04T01:13:34;98371.66;;;1.72;75.09
77739;BME280;66904;59.926;30.404;2024-02-04T01:18:45;98382.69;;;1.75;74.13
77739;BME280;66904;59.926;30.404;2024-02-04T01:23:55;98382.78;;;1.74;74.18
77739;BME280;66904;59.926;30.404;2024-02-04T01:29:06;98373.22;;;1.74;74.71
77739;BME280;66904;59.926;30.404;2024-02-04T01:34:17;98378.41;;;1.74;74.96
77739;BME280;66904;59.926;30.404;2024-02-04T01:39:27;98389.53;;;1.76;74.81
77739;BME280;66904;59.926;30.404;2024-02-04T01:44:38;98386.09;;;1.76;74.05
77739;BME280;66904;59.926;30.404;2024-02-04T01:49:49;98385.66;;;1.82;74.67
77739;BME280;66904;59.926;30.404;2024-02-04T01:55:00;98391.91;;;1.79;74.37
77739;BME280;66904;59.926;30.404;2024-02-04T02:00:14;98385.63;;;1.71;74.32
77739;BME280;66904;59.926;30.404;2024-02-04T02:05:25;98366.31;;;1.62;74.87
77739;BME280;66904;59.926;30.404;2024-02-04T02:10:36;98371.78;;;1.59;75.05
77739;BME280;66904;59.926;30.404;2024-02-04T02:15:49;98362.66;;;1.65;74.79
77739;BME280;66904;59.926;30.404;2024-02-04T02:26:24;98364.19;;;1.67;74.75
77739;BME280;66904;59.926;30.404;2024-02-04T02:31:37;98352.69;;;1.70;74.82
77739;BME280;66904;59.926;30.404;2024-02-04T02:42:36;98356.25;;;1.80;74.10
77739;BME280;66904;59.926;30.404;2024-02-04T02:47:50;98353.06;;;1.76;74.16
77739;BME280;66904;59.926;30.404;2024-02-04T02:53:02;98360.41;;;1.71;74.04
77739;BME280;66904;59.926;30.404;2024-02-04T02:58:14;98349.38;;;1.68;73.98
77739;BME280;66904;59.926;30.404;2024-02-04T03:03:25;98357.81;;;1.71;74.13
77739;BME280;66904;59.926;30.404;2024-02-04T03:08:35;98341.81;;;1.76;74.05
77739;BME280;66904;59.926;30.404;2024-02-04T03:13:46;98333.78;;;1.79;74.44
77739;BME280;66904;59.926;30.404;2024-02-04T03:18:57;98337.78;;;1.83;74.25
77739;BME280;66904;59.926;30.404;2024-02-04T03:24:07;98335.19;;;1.83;73.66
77739;BME280;66904;59.926;30.404;2024-02-04T03:29:18;98337.19;;;1.79;73.40
77739;BME280;66904;59.926;30.404;2024-02-04T03:34:29;98340.38;;;1.83;73.44
77739;BME280;66904;59.926;30.404;2024-02-04T03:39:39;98335.41;;;1.80;74.54
77739;BME280;66904;59.926;30.404;2024-02-04T03:44:50;98328.44;;;1.80;73.77
77739;BME280;66904;59.926;30.404;2024-02-04T03:50:01;98319.66;;;1.81;73.42
77739;BME280;66904;59.926;30.404;2024-02-04T03:55:13;98311.97;;;1.80;73.22
77739;BME280;66904;59.926;30.404;2024-02-04T04:00:24;98301.78;;;1.77;73.84
77739;BME280;66904;59.926;30.404;2024-02-04T04:05:35;98287.56;;;1.70;73.45
77739;BME280;66904;59.926;30.404;2024-02-04T04:10:46;98295.97;;;1.73;74.25
77739;BME280;66904;59.926;30.404;2024-02-04T04:15:57;98290.50;;;1.76;73.71
77739;BME280;66904;59.926;30.404;2024-02-04T04:21:07;98284.84;;;1.71;73.52
77739;BME280;66904;59.926;30.404;2024-02-04T04:26:18;98275.00;;;1.64;73.50
77739;BME280;66904;59.926;30.404;2024-02-04T04:31:29;98268.97;;;1.63;73.34
77739;BME280;66904;59.926;30.404;2024-02-04T04:36:39;98272.53;;;1.62;74.27
77739;BME280;66904;59.926;30.404;2024-02-04T04:41:50;98254.28;;;1.51;74.24
77739;BME280;66904;59.926;30.404;2024-02-04T04:47:01;98259.16;;;1.55;73.71
77739;BME280;66904;59.926;30.404;2024-02-04T04:52:11;98252.97;;;1.56;73.71
77739;BME280;66904;59.926;30.404;2024-02-04T04:57:23;98261.03;;;1.53;74.11
77739;BME280;66904;59.926;30.404;2024-02-04T05:02:34;98246.09;;;1.44;73.59
77739;BME280;66904;59.926;30.404;2024-02-04T05:07:45;98250.69;;;1.30;73.60
77739;BME280;66904;59.926;30.404;2024-02-04T05:12:57;98276.00;;;1.17;73.60
77739;BME280;66904;59.926;30.404;2024-02-04T05:18:08;98279.31;;;1.08;74.14
77739;BME280;66904;59.926;30.404;2024-02-04T05:23:18;98288.56;;;1.12;74.38
77739;BME280;66904;59.926;30.404;2024-02-04T05:28:29;98281.09;;;1.18;73.45
77739;BME280;66904;59.926;30.404;2024-02-04T05:33:40;98278.88;;;1.25;73.63
77739;BME280;66904;59.926;30.404;2024-02-04T05:38:50;98266.22;;;1.31;73.44
77739;BME280;66904;59.926;30.404;2024-02-04T05:44:01;98270.84;;;1.39;73.13
77739;BME280;66904;59.926;30.404;2024-02-04T05:49:12;98266.25;;;1.42;74.24
77739;BME280;66904;59.926;30.404;2024-02-04T05:54:23;98262.06;;;1.40;73.34
77739;BME280;66904;59.926;30.404;2024-02-04T05:59:34;98263.97;;;1.38;73.40
77739;BME280;66904;59.926;30.404;2024-02-04T06:04:45;98248.22;;;1.28;74.02
77739;BME280;66904;59.926;30.404;2024-02-04T06:09:56;98262.53;;;1.34;74.02
77739;BME280;66904;59.926;30.404;2024-02-04T06:15:15;98253.91;;;1.33;74.15
77739;BME280;66904;59.926;30.404;2024-02-04T06:20:26;98253.78;;;1.35;73.46
77739;BME280;66904;59.926;30.404;2024-02-04T06:25:37;98258.53;;;1.41;73.68
77739;BME280;66904;59.926;30.404;2024-02-04T06:30:48;98254.16;;;1.41;73.28
77739;BME280;66904;59.926;30.404;2024-02-04T06:35:59;98256.63;;;1.43;74.06
77739;BME280;66904;59.926;30.404;2024-02-04T06:41:10;98245.75;;;1.49;73.97
77739;BME280;66904;59.926;30.404;2024-02-04T06:46:25;98246.59;;;1.61;73.75
77739;BME280;66904;59.926;30.404;2024-02-04T06:51:36;98248.13;;;1.74;73.51
77739;BME280;66904;59.926;30.404;2024-02-04T06:56:47;98232.72;;;1.71;73.90
77739;BME280;66904;59.926;30.404;2024-02-04T07:01:57;98240.56;;;1.82;73.49
77739;BME280;66904;59.926;30.404;2024-02-04T07:07:08;98234.03;;;1.88;73.98
77739;BME280;66904;59.926;30.404;2024-02-04T07:12:19;98233.28;;;1.97;73.12
77739;BME280;66904;59.926;30.404;2024-02-04T07:17:30;98235.38;;;2.14;73.06
77739;BME280;66904;59.926;30.404;2024-02-04T07:22:40;98223.38;;;2.23;73.29
77739;BME280;66904;59.926;30.404;2024-02-04T07:27:51;98208.72;;;2.22;73.50
77739;BME280;66904;59.926;30.404;2024-02-04T07:33:02;98217.22;;;2.24;72.89
77739;BME280;66904;59.926;30.404;2024-02-04T07:38:13;98217.22;;;2.24;72.88
77739;BME280;66904;59.926;30.404;2024-02-04T07:43:24;98206.69;;;2.25;73.75
77739;BME280;66904;59.926;30.404;2024-02-04T07:48:35;98214.44;;;2.36;73.10
77739;BME280;66904;59.926;30.404;2024-02-04T07:53:45;98216.09;;;2.48;73.00
77739;BME280;66904;59.926;30.404;2024-02-04T07:58:56;98208.81;;;2.52;72.81
77739;BME280;66904;59.926;30.404;2024-02-04T08:04:07;98222.41;;;2.67;73.12
77739;BME280;66904;59.926;30.404;2024-02-04T08:09:21;98219.03;;;2.76;73.01
77739;BME280;66904;59.926;30.404;2024-02-04T08:14:31;98214.91;;;2.73;72.78
77739;BME280;66904;59.926;30.404;2024-02-04T08:19:42;98223.31;;;2.77;72.72
77739;BME280;66904;59.926;30.404;2024-02-04T08:24:53;98218.66;;;2.80;72.76
77739;BME280;66904;59.926;30.404;2024-02-04T08:30:04;98211.84;;;2.89;72.86
77739;BME280;66904;59.926;30.404;2024-02-04T08:35:15;98206.63;;;2.89;72.45
77739;BME280;66904;59.926;30.404;2024-02-04T08:40:26;98199.75;;;2.88;72.31
77739;BME280;66904;59.926;30.404;2024-02-04T08:45:37;98207.19;;;2.92;72.69
77739;BME280;66904;59.926;30.404;2024-02-04T08:50:47;98202.81;;;2.93;72.49
77739;BME280;66904;59.926;30.404;2024-02-04T08:55:58;98202.22;;;2.89;72.47
77739;BME280;66904;59.926;30.404;2024-02-04T09:01:11;98201.97;;;2.92;72.62
77739;BME280;66904;59.926;30.404;2024-02-04T09:06:22;98195.69;;;2.95;71.95
77739;BME280;66904;59.926;30.404;2024-02-04T09:11:33;98202.38;;;2.88;72.34
77739;BME280;66904;59.926;30.404;2024-02-04T09:16:44;98206.88;;;2.86;71.65
77739;BME280;66904;59.926;30.404;2024-02-04T09:21:54;98203.06;;;2.90;71.77
77739;BME280;66904;59.926;30.404;2024-02-04T09:27:05;98199.34;;;2.92;72.07
77739;BME280;66904;59.926;30.404;2024-02-04T09:32:16;98197.06;;;2.99;71.72
77739;BME280;66904;59.926;30.404;2024-02-04T09:37:27;98199.41;;;3.02;71.39
77739;BME280;66904;59.926;30.404;2024-02-04T09:42:37;98201.22;;;3.01;71.08
77739;BME280;66904;59.926;30.404;2024-02-04T09:47:50;98203.94;;;3.00;71.20
77739;BME280;66904;59.926;30.404;2024-02-04T09:53:04;98197.94;;;3.09;71.67
77739;BME280;66904;59.926;30.404;2024-02-04T09:58:18;98198.84;;;3.19;71.35
77739;BME280;66904;59.926;30.404;2024-02-04T10:03:29;98195.28;;;3.20;70.80
77739;BME280;66904;59.926;30.404;2024-02-04T10:08:39;98194.75;;;3.26;70.86
77739;BME280;66904;59.926;30.404;2024-02-04T10:13:50;98200.16;;;3.34;71.12
77739;BME280;66904;59.926;30.404;2024-02-04T10:19:01;98198.81;;;3.40;71.08
77739;BME280;66904;59.926;30.404;2024-02-04T10:24:13;98206.56;;;3.51;70.43
77739;BME280;66904;59.926;30.404;2024-02-04T10:29:24;98200.94;;;3.55;70.15
77739;BME280;66904;59.926;30.404;2024-02-04T10:34:38;98208.69;;;3.67;70.39
77739;BME280;66904;59.926;30.404;2024-02-04T10:39:49;98207.28;;;3.62;70.12
77739;BME280;66904;59.926;30.404;2024-02-04T10:45:00;98215.00;;;3.64;70.37
77739;BME280;66904;59.926;30.404;2024-02-04T10:50:15;98209.09;;;3.72;70.08
77739;BME280;66904;59.926;30.404;2024-02-04T10:55:27;98207.78;;;3.77;70.02
77739;BME280;66904;59.926;30.404;2024-02-04T11:00:43;98222.47;;;3.78;69.76
77739;BME280;66904;59.926;30.404;2024-02-04T11:05:54;98222.63;;;3.77;69.57
77739;BME280;66904;59.926;30.404;2024-02-04T11:11:05;98216.44;;;3.78;69.59
77739;BME280;66904;59.926;30.404;2024-02-04T11:16:38;98210.50;;;3.76;69.06
77739;BME280;66904;59.926;30.404;2024-02-04T11:27:24;98209.25;;;3.70;69.40
77739;BME280;66904;59.926;30.404;2024-02-04T11:32:35;98200.75;;;3.78;69.45
77739;BME280;66904;59.926;30.404;2024-02-04T11:37:46;98207.34;;;3.82;69.52
77739;BME280;66904;59.926;30.404;2024-02-04T11:43:05;98209.00;;;3.83;69.31
77739;BME280;66904;59.926;30.404;2024-02-04T11:48:16;98205.44;;;3.84;69.47
77739;BME280;66904;59.926;30.404;2024-02-04T11:53:27;98188.94;;;3.83;69.38
77739;BME280;66904;59.926;30.404;2024-02-04T11:58:42;98196.88;;;3.82;69.04
77739;BME280;66904;59.926;30.404;2024-02-04T12:03:54;98203.78;;;3.83;69.56
77739;BME280;66904;59.926;30.404;2024-02-04T12:09:05;98205.16;;;3.77;69.05
77739;BME280;66904;59.926;30.404;2024-02-04T12:14:17;98204.72;;;3.72;68.74
77739;BME280;66904;59.926;30.404;2024-02-04T12:19:29;98209.09;;;3.72;68.57
77739;BME280;66904;59.926;30.404;2024-02-04T12:24:40;98215.31;;;3.71;69.00
77739;BME280;66904;59.926;30.404;2024-02-04T12:29:51;98217.22;;;3.69;68.70
77739;BME280;66904;59.926;30.404;2024-02-04T12:35:03;98227.41;;;3.72;68.82
77739;BME280;66904;59.926;30.404;2024-02-04T12:40:21;98223.00;;;3.72;68.35
77739;BME280;66904;59.926;30.404;2024-02-04T12:45:32;98232.38;;;3.75;68.09
77739;BME280;66904;59.926;30.404;2024-02-04T12:50:43;98231.25;;;3.68;68.26
77739;BME280;66904;59.926;30.404;2024-02-04T12:55:58;98231.53;;;3.64;67.96
77739;BME280;66904;59.926;30.404;2024-02-04T13:01:09;98225.97;;;3.58;68.34
77739;BME280;66904;59.926;30.404;2024-02-04T13:06:20;98232.69;;;3.51;68.33
77739;BME280;66904;59.926;30.404;2024-02-04T13:11:31;98229.94;;;3.52;68.12
77739;BME280;66904;59.926;30.404;2024-02-04T13:16:42;98234.47;;;3.50;68.37
77739;BME280;66904;59.926;30.404;2024-02-04T13:21:52;98230.09;;;3.51;68.42
77739;BME280;66904;59.926;30.404;2024-02-04T13:27:03;98230.41;;;3.57;68.60
77739;BME280;66904;59.926;30.404;2024-02-04T13:32:16;98238.53;;;3.64;68.14
77739;BME280;66904;59.926;30.404;2024-02-04T13:37:27;98242.09;;;3.63;68.13
77739;BME280;66904;59.926;30.404;2024-02-04T13:42:37;98240.84;;;3.57;68.23
77739;BME280;66904;59.926;30.404;2024-02-04T13:47:48;98249.50;;;3.58;68.43
77739;BME280;66904;59.926;30.404;2024-02-04T13:52:59;98249.94;;;3.63;68.29
77739;BME280;66904;59.926;30.404;2024-02-04T13:58:10;98255.81;;;3.55;68.24
77739;BME280;66904;59.926;30.404;2024-02-04T14:03:20;98251.13;;;3.49;68.33
77739;BME280;66904;59.926;30.404;2024-02-04T14:08:31;98251.25;;;3.48;68.99
77739;BME280;66904;59.926;30.404;2024-02-04T14:13:42;98249.84;;;3.44;67.83
77739;BME280;66904;59.926;30.404;2024-02-04T14:18:52;98250.75;;;3.33;68.77
77739;BME280;66904;59.926;30.404;2024-02-04T14:24:03;98262.97;;;3.33;68.41
77739;BME280;66904;59.926;30.404;2024-02-04T14:29:14;98265.84;;;3.30;68.66
77739;BME280;66904;59.926;30.404;2024-02-04T14:34:26;98261.56;;;3.29;68.01
77739;BME280;66904;59.926;30.404;2024-02-04T14:39:38;98258.34;;;3.16;68.98
77739;BME280;66904;59.926;30.404;2024-02-04T14:44:49;98259.31;;;3.15;68.33
77739;BME280;66904;59.926;30.404;2024-02-04T14:50:00;98257.38;;;3.17;68.73
77739;BME280;66904;59.926;30.404;2024-02-04T14:55:10;98249.44;;;3.18;68.40
77739;BME280;66904;59.926;30.404;2024-02-04T15:00:21;98254.25;;;3.23;68.58
77739;BME280;66904;59.926;30.404;2024-02-04T15:05:35;98252.28;;;3.15;68.78
77739;BME280;66904;59.926;30.404;2024-02-04T15:10:46;98251.34;;;3.16;68.58
77739;BME280;66904;59.926;30.404;2024-02-04T15:15:57;98259.44;;;3.13;68.88
77739;BME280;66904;59.926;30.404;2024-02-04T15:21:08;98256.28;;;3.19;69.30
77739;BME280;66904;59.926;30.404;2024-02-04T15:26:19;98252.75;;;3.20;69.23
77739;BME280;66904;59.926;30.404;2024-02-04T15:31:31;98258.53;;;3.24;68.65
77739;BME280;66904;59.926;30.404;2024-02-04T15:36:44;98257.13;;;3.20;69.36
77739;BME280;66904;59.926;30.404;2024-02-04T15:41:55;98248.47;;;3.19;69.37
77739;BME280;66904;59.926;30.404;2024-02-04T15:47:06;98251.91;;;3.20;68.81
77739;BME280;66904;59.926;30.404;2024-02-04T15:52:20;98234.31;;;3.22;69.22
77739;BME280;66904;59.926;30.404;2024-02-04T15:57:33;98230.44;;;3.16;69.08
77739;BME280;66904;59.926;30.404;2024-02-04T16:02:45;98230.28;;;3.08;68.66
77739;BME280;66904;59.926;30.404;2024-02-04T16:07:58;98227.88;;;3.05;68.86
77739;BME280;66904;59.926;30.404;2024-02-04T16:13:09;98216.38;;;3.07;69.49
77739;BME280;66904;59.926;30.404;2024-02-04T16:18:20;98207.13;;;3.03;68.75
77739;BME280;66904;59.926;30.404;2024-02-04T16:23:31;98221.34;;;3.10;69.26
77739;BME280;66904;59.926;30.404;2024-02-04T16:28:42;98214.19;;;3.12;68.80
77739;BME280;66904;59.926;30.404;2024-02-04T16:33:52;98192.78;;;3.19;69.12
77739;BME280;66904;59.926;30.404;2024-02-04T16:39:05;98204.88;;;3.20;69.26
77739;BME280;66904;59.926;30.404;2024-02-04T16:44:16;98201.63;;;3.27;69.14
77739;BME280;66904;59.926;30.404;2024-02-04T16:49:27;98198.63;;;3.32;68.73
77739;BME280;66904;59.926;30.404;2024-02-04T16:54:39;98193.13;;;3.35;69.29
77739;BME280;66904;59.926;30.404;2024-02-04T16:59:49;98206.06;;;3.36;69.00
77739;BME280;66904;59.926;30.404;2024-02-04T17:05:04;98197.66;;;3.33;68.55
77739;BME280;66904;59.926;30.404;2024-02-04T17:10:16;98194.06;;;3.24;68.95
77739;BME280;66904;59.926;30.404;2024-02-04T17:15:27;98192.78;;;3.19;68.04
77739;BME280;66904;59.926;30.404;2024-02-04T17:20:47;98191.41;;;3.15;68.38
77739;BME280;66904;59.926;30.404;2024-02-04T17:25:59;98189.44;;;3.07;68.51
77739;BME280;66904;59.926;30.404;2024-02-04T17:31:12;98193.72;;;3.08;68.08
77739;BME280;66904;59.926;30.404;2024-02-04T17:36:23;98200.56;;;3.09;68.43
77739;BME280;66904;59.926;30.404;2024-02-04T17:41:34;98188.22;;;3.11;67.78
77739;BME280;66904;59.926;30.404;2024-02-04T17:46:45;98191.66;;;3.11;67.81
77739;BME280;66904;59.926;30.404;2024-02-04T17:51:57;98176.50;;;3.05;68.31
77739;BME280;66904;59.926;30.404;2024-02-04T17:57:08;98199.25;;;3.15;68.08
77739;BME280;66904;59.926;30.404;2024-02-04T18:02:20;98191.16;;;3.18;68.20
77739;BME280;66904;59.926;30.404;2024-02-04T18:07:33;98187.28;;;3.22;68.02
77739;BME280;66904;59.926;30.404;2024-02-04T18:12:45;98195.13;;;3.22;67.67
77739;BME280;66904;59.926;30.404;2024-02-04T18:17:55;98198.72;;;3.21;67.80
77739;BME280;66904;59.926;30.404;2024-02-04T18:23:06;98196.78;;;3.23;67.53
77739;BME280;66904;59.926;30.404;2024-02-04T18:28:17;98195.53;;;3.17;67.85
77739;BME280;66904;59.926;30.404;2024-02-04T18:33:28;98202.81;;;3.13;67.80
77739;BME280;66904;59.926;30.404;2024-02-04T18:38:39;98191.91;;;3.08;67.29
77739;BME280;66904;59.926;30.404;2024-02-04T18:43:50;98193.56;;;3.09;67.25
77739;BME280;66904;59.926;30.404;2024-02-04T18:49:01;98194.91;;;3.04;67.26
77739;BME280;66904;59.926;30.404;2024-02-04T18:54:13;98194.59;;;2.97;67.74
77739;BME280;66904;59.926;30.404;2024-02-04T18:59:23;98192.75;;;2.88;67.33
77739;BME280;66904;59.926;30.404;2024-02-04T19:04:35;98192.63;;;2.90;68.00
77739;BME280;66904;59.926;30.404;2024-02-04T19:09:46;98195.38;;;2.88;67.16
77739;BME280;66904;59.926;30.404;2024-02-04T19:14:56;98196.69;;;2.83;66.99
77739;BME280;66904;59.926;30.404;2024-02-04T19:20:11;98199.44;;;2.81;67.66
77739;BME280;66904;59.926;30.404;2024-02-04T19:25:25;98192.09;;;2.75;67.79
77739;BME280;66904;59.926;30.404;2024-02-04T19:30:36;98187.84;;;2.74;67.88
77739;BME280;66904;59.926;30.404;2024-02-04T19:35:49;98196.88;;;2.70;67.44
77739;BME280;66904;59.926;30.404;2024-02-04T19:41:00;98202.72;;;2.63;68.44
77739;BME280;66904;59.926;30.404;2024-02-04T19:46:11;98195.97;;;2.60;68.49
77739;BME280;66904;59.926;30.404;2024-02-04T19:51:22;98196.13;;;2.58;67.82
77739;BME280;66904;59.926;30.404;2024-02-04T19:56:32;98202.97;;;2.59;68.05
77739;BME280;66904;59.926;30.404;2024-02-04T20:01:43;98205.84;;;2.56;68.37
77739;BME280;66904;59.926;30.404;2024-02-04T20:06:55;98207.25;;;2.60;68.52
77739;BME280;66904;59.926;30.404;2024-02-04T20:12:07;98202.53;;;2.54;67.69
77739;BME280;66904;59.926;30.404;2024-02-04T20:17:18;98199.47;;;2.49;67.00
77739;BME280;66904;59.926;30.404;2024-02-04T20:22:29;98203.50;;;2.42;68.24
77739;BME280;66904;59.926;30.404;2024-02-04T20:27:39;98202.00;;;2.40;67.97
77739;BME280;66904;59.926;30.404;2024-02-04T20:32:50;98209.47;;;2.44;68.00
77739;BME280;66904;59.926;30.404;2024-02-04T20:38:01;98197.94;;;2.47;67.45
77739;BME280;66904;59.926;30.404;2024-02-04T20:43:12;98192.84;;;2.45;68.43
77739;BME280;66904;59.926;30.404;2024-02-04T20:48:23;98202.31;;;2.46;68.69
77739;BME280;66904;59.926;30.404;2024-02-04T20:53:33;98191.31;;;2.43;68.54
77739;BME280;66904;59.926;30.404;2024-02-04T20:58:45;98190.69;;;2.50;67.79
77739;BME280;66904;59.926;30.404;2024-02-04T21:03:55;98183.13;;;2.47;67.83
77739;BME280;66904;59.926;30.404;2024-02-04T21:09:06;98191.59;;;2.60;68.81
77739;BME280;66904;59.926;30.404;2024-02-04T21:14:19;98189.94;;;2.59;68.38
77739;BME280;66904;59.926;30.404;2024-02-04T21:19:30;98179.31;;;2.51;68.97
77739;BME280;66904;59.926;30.404;2024-02-04T21:24:46;98187.94;;;2.52;67.79
77739;BME280;66904;59.926;30.404;2024-02-04T21:29:59;98182.16;;;2.48;68.35
77739;BME280;66904;59.926;30.404;2024-02-04T21:35:10;98179.31;;;2.51;67.72
77739;BME280;66904;59.926;30.404;2024-02-04T21:40:21;98175.09;;;2.60;68.74
77739;BME280;66904;59.926;30.404;2024-02-04T21:45:36;98173.75;;;2.66;67.77
77739;BME280;66904;59.926;30.404;2024-02-04T21:50:48;98180.66;;;2.67;67.78
77739;BME280;66904;59.926;30.404;2024-02-04T21:55:59;98183.06;;;2.58;68.04
77739;BME280;66904;59.926;30.404;2024-02-04T22:01:10;98174.28;;;2.59;68.40
77739;BME280;66904;59.926;30.404;2024-02-04T22:06:21;98174.16;;;2.61;68.19
77739;BME280;66904;59.926;30.404;2024-02-04T22:11:31;98179.97;;;2.65;67.97
77739;BME280;66904;59.926;30.404;2024-02-04T22:16:43;98176.50;;;2.64;67.90
77739;BME280;66904;59.926;30.404;2024-02-04T22:21:54;98162.53;;;2.65;68.26
77739;BME280;66904;59.926;30.404;2024-02-04T22:27:04;98165.75;;;2.57;67.40
77739;BME280;66904;59.926;30.404;2024-02-04T22:32:15;98163.50;;;2.53;67.32
77739;BME280;66904;59.926;30.404;2024-02-04T22:37:26;98166.63;;;2.47;68.10
77739;BME280;66904;59.926;30.404;2024-02-04T22:42:37;98160.97;;;2.42;67.80
77739;BME280;66904;59.926;30.404;2024-02-04T22:47:49;98158.22;;;2.43;67.95
77739;BME280;66904;59.926;30.404;2024-02-04T22:52:59;98162.34;;;2.46;67.46
77739;BME280;66904;59.926;30.404;2024-02-04T22:58:10;98158.59;;;2.39;66.88
77739;BME280;66904;59.926;30.404;2024-02-04T23:03:21;98147.94;;;2.42;67.39
77739;BME280;66904;59.926;30.404;2024-02-04T23:08:32;98158.56;;;2.50;68.06
77739;BME280;66904;59.926;30.404;2024-02-04T23:13:42;98161.84;;;2.52;68.12
77739;BME280;66904;59.926;30.404;2024-02-04T23:18:53;98153.00;;;2.43;67.38
77739;BME280;66904;59.926;30.404;2024-02-04T23:24:04;98161.41;;;2.47;67.97
77739;BME280;66904;59.926;30.404;2024-02-04T23:29:15;98166.63;;;2.47;67.97
77739;BME280;66904;59.926;30.404;2024-02-04T23:34:26;98164.97;;;2.46;67.92
77739;BME280;66904;59.926;30.404;2024-02-04T23:39:36;98161.66;;;2.44;68.02
77739;BME280;66904;59.926;30.404;2024-02-04T23:44:47;98160.25;;;2.40;67.91
77739;BME280;66904;59.926;30.404;2024-02-04T23:49:58;98158.41;;;2.31;67.76
77739;BME280;66904;59.926;30.404;2024-02-04T23:55:09;98151.09;;;2.25;67.68
